Terminal Aerodrome Forecast
Issued by NWS Lake Charles, LA

Home | Current Version | Previous Version | Text Only | Print | Product List | Glossary On
Versions: 1 2 3 4 5 6 7 8 9 10 11 12
000
FTUS44 KLCH 011734
TAFLCH
TAF
KLCH 011734Z 0118/0218 VRB06KT P6SM SCT250
     FM020100 00000KT P6SM SCT070 BKN200
     FM021500 06009KT P6SM BKN150=

USA.gov is the U.S. government's official web portal to all federal, state and local government web resources and services.